createdAt,value
2023-11-12T00:01:59.156Z,1.30
2023-11-12T00:04:25.954Z,1.33
2023-11-12T00:06:52.621Z,1.30
2023-11-12T00:09:19.645Z,0.82
2023-11-12T00:11:46.151Z,1.00
2023-11-12T00:14:12.626Z,0.90
2023-11-12T00:16:39.030Z,1.00
2023-11-12T00:19:06.066Z,0.98
2023-11-12T00:21:32.446Z,0.95
2023-11-12T00:23:59.146Z,1.10
2023-11-12T00:26:25.560Z,0.77
2023-11-12T00:28:52.101Z,1.02
2023-11-12T00:31:18.754Z,1.00
2023-11-12T00:33:45.946Z,1.00
2023-11-12T00:36:13.498Z,1.10
2023-11-12T00:38:39.958Z,0.93
2023-11-12T00:41:09.553Z,1.10
2023-11-12T00:43:35.985Z,1.35
2023-11-12T00:46:03.063Z,0.93
2023-11-12T00:48:29.852Z,1.17
2023-11-12T00:50:56.380Z,1.02
2023-11-12T00:53:23.891Z,1.10
2023-11-12T00:55:50.409Z,1.00
2023-11-12T00:58:16.851Z,1.15
2023-11-12T01:00:43.308Z,1.30
2023-11-12T01:03:13.518Z,0.85
2023-11-12T01:05:40.036Z,1.02
2023-11-12T01:08:08.105Z,1.25
2023-11-12T01:10:34.791Z,1.20
2023-11-12T01:13:01.531Z,0.90
2023-11-12T01:15:28.619Z,1.30
2023-11-12T01:17:55.224Z,1.50
2023-11-12T01:20:22.446Z,1.23
2023-11-12T01:22:48.970Z,1.10
2023-11-12T01:25:16.017Z,1.20
2023-11-12T01:27:42.595Z,1.20
2023-11-12T01:30:09.283Z,1.00
2023-11-12T01:32:35.766Z,1.10
2023-11-12T01:35:02.548Z,1.13
2023-11-12T01:37:28.932Z,1.17
2023-11-12T01:39:55.520Z,0.90
2023-11-12T01:42:21.974Z,1.00
2023-11-12T01:44:48.545Z,1.20
2023-11-12T01:47:15.723Z,1.00
2023-11-12T01:49:42.309Z,1.10
2023-11-12T01:52:10.264Z,0.85
2023-11-12T01:54:38.836Z,1.13
2023-11-12T01:57:07.910Z,0.90
2023-11-12T01:59:36.952Z,1.23
2023-11-12T02:02:04.390Z,0.98
2023-11-12T02:04:30.913Z,1.00
2023-11-12T02:07:00.118Z,1.00
2023-11-12T02:09:27.277Z,1.08
2023-11-12T02:11:55.875Z,1.10
2023-11-12T02:14:24.788Z,1.13
2023-11-12T02:16:52.269Z,1.10
2023-11-12T02:19:29.734Z,1.17
2023-11-12T02:21:57.363Z,1.20
2023-11-12T02:24:27.163Z,0.82
2023-11-12T02:26:53.769Z,1.00
2023-11-12T02:29:20.454Z,1.10
2023-11-12T02:31:47.017Z,1.15
2023-11-12T02:34:13.410Z,1.08
2023-11-12T02:36:42.103Z,0.80
2023-11-12T02:39:09.454Z,1.25
2023-11-12T02:41:39.486Z,1.20
2023-11-12T02:44:09.618Z,1.08
2023-11-12T02:46:36.706Z,1.08
2023-11-12T02:49:09.056Z,1.00
2023-11-12T02:51:36.132Z,1.17
2023-11-12T02:54:04.350Z,1.15
2023-11-12T02:56:32.121Z,1.10
2023-11-12T02:58:58.577Z,1.25
2023-11-12T03:01:25.898Z,1.17
2023-11-12T03:03:53.232Z,0.80
2023-11-12T03:06:19.756Z,1.00
2023-11-12T03:08:46.284Z,0.75
2023-11-12T03:11:13.346Z,1.10
2023-11-12T03:13:39.771Z,1.20
2023-11-12T03:16:06.437Z,1.00
2023-11-12T03:18:32.991Z,1.17
2023-11-12T03:20:59.398Z,1.20
2023-11-12T03:23:25.794Z,1.00
2023-11-12T03:25:53.978Z,1.00
2023-11-12T03:28:20.403Z,1.00
2023-11-12T03:30:46.895Z,1.17
2023-11-12T03:33:13.511Z,1.00
2023-11-12T03:35:39.983Z,0.90
2023-11-12T03:38:06.503Z,1.00
2023-11-12T03:40:32.876Z,1.17
2023-11-12T03:43:00.214Z,1.00
2023-11-12T03:45:26.717Z,0.98
2023-11-12T03:47:53.233Z,0.77
2023-11-12T03:50:19.741Z,1.25
2023-11-12T03:52:47.035Z,0.90
2023-11-12T03:55:13.946Z,0.98
2023-11-12T03:57:40.452Z,1.13
2023-11-12T04:00:08.352Z,1.10
2023-11-12T04:02:34.948Z,1.00
2023-11-12T04:05:01.690Z,1.00
2023-11-12T04:07:28.253Z,0.77
2023-11-12T04:09:54.692Z,1.38
2023-11-12T04:12:21.209Z,1.20
2023-11-12T04:14:47.661Z,0.80
2023-11-12T04:17:14.109Z,1.00
2023-11-12T04:19:40.609Z,0.82
2023-11-12T04:22:07.052Z,1.08
2023-11-12T04:24:33.516Z,0.80
2023-11-12T04:27:00.024Z,0.85
2023-11-12T04:29:27.671Z,0.90
2023-11-12T04:31:54.098Z,1.10
2023-11-12T04:34:21.017Z,0.90
2023-11-12T04:36:48.156Z,0.88
2023-11-12T04:39:14.720Z,1.23
2023-11-12T04:41:41.147Z,0.98
2023-11-12T04:44:07.570Z,1.10
2023-11-12T04:46:34.837Z,0.80
2023-11-12T04:49:01.515Z,0.75
2023-11-12T04:51:28.026Z,1.00
2023-11-12T04:53:55.264Z,0.90
2023-11-12T04:56:21.696Z,1.10
2023-11-12T04:58:48.224Z,0.80
2023-11-12T05:01:14.781Z,1.02
2023-11-12T05:03:41.752Z,0.90
2023-11-12T05:06:09.243Z,1.02
2023-11-12T05:08:36.104Z,1.00
2023-11-12T05:11:02.620Z,0.95
2023-11-12T05:13:29.060Z,0.90
2023-11-12T05:15:55.732Z,0.90
2023-11-12T05:18:22.693Z,1.10
2023-11-12T05:20:49.231Z,0.70
2023-11-12T05:23:15.693Z,1.35
2023-11-12T05:25:42.267Z,0.90
2023-11-12T05:28:08.907Z,1.00
2023-11-12T05:30:35.615Z,0.90
2023-11-12T05:33:02.535Z,0.85
2023-11-12T05:35:29.102Z,0.90
2023-11-12T05:37:55.682Z,1.20
2023-11-12T05:40:22.139Z,0.90
2023-11-12T05:42:48.610Z,0.93
2023-11-12T05:45:15.170Z,1.00
2023-11-12T05:47:41.947Z,1.10
2023-11-12T05:50:09.119Z,0.88
2023-11-12T05:52:35.599Z,0.93
2023-11-12T05:55:02.049Z,1.10
2023-11-12T05:57:28.580Z,1.05
2023-11-12T05:59:54.973Z,0.90
2023-11-12T06:02:21.367Z,1.00
2023-11-12T06:04:47.820Z,0.90
2023-11-12T06:07:14.210Z,1.20
2023-11-12T06:09:40.716Z,1.05
2023-11-12T06:12:08.920Z,1.13
2023-11-12T06:14:37.510Z,0.93
2023-11-12T06:17:05.712Z,1.00
2023-11-12T06:19:32.394Z,0.80
2023-11-12T06:21:58.935Z,0.80
2023-11-12T06:24:25.424Z,1.08
2023-11-12T06:26:51.908Z,1.10
2023-11-12T06:29:18.466Z,1.00
2023-11-12T06:31:44.908Z,1.00
2023-11-12T06:34:11.483Z,1.27
2023-11-12T06:36:38.150Z,1.40
2023-11-12T06:39:04.840Z,1.30
2023-11-12T06:41:31.274Z,1.40
2023-11-12T06:43:57.640Z,1.40
2023-11-12T06:46:24.056Z,1.45
2023-11-12T06:48:50.795Z,1.13
2023-11-12T06:51:24.034Z,1.17
2023-11-12T06:53:50.993Z,1.40
2023-11-12T06:56:17.613Z,1.00
2023-11-12T06:58:44.630Z,1.40
2023-11-12T07:01:11.310Z,1.05
2023-11-12T07:03:39.348Z,0.95
2023-11-12T07:06:07.808Z,1.00
2023-11-12T07:08:34.791Z,1.00
2023-11-12T07:11:01.361Z,1.02
2023-11-12T07:13:28.149Z,1.00
2023-11-12T07:15:56.227Z,1.25
2023-11-12T07:18:23.031Z,1.00
2023-11-12T07:20:50.668Z,1.08
2023-11-12T07:23:17.130Z,1.10
2023-11-12T07:25:43.558Z,1.10
2023-11-12T07:28:10.041Z,1.45
2023-11-12T07:30:39.362Z,1.00
2023-11-12T07:33:09.403Z,1.10
2023-11-12T07:35:35.809Z,1.10
2023-11-12T07:38:02.224Z,1.20
2023-11-12T07:40:28.770Z,0.98
2023-11-12T07:42:56.461Z,1.00
2023-11-12T07:45:25.852Z,1.00
2023-11-12T07:47:58.262Z,1.02
2023-11-12T07:50:24.830Z,1.10
2023-11-12T07:52:51.553Z,0.90
2023-11-12T07:55:18.143Z,1.25
2023-11-12T07:57:44.768Z,1.38
2023-11-12T08:00:14.346Z,1.27
2023-11-12T08:02:41.125Z,1.10
2023-11-12T08:05:09.501Z,0.93
2023-11-12T08:07:36.632Z,1.20
2023-11-12T08:10:05.983Z,1.10
2023-11-12T08:12:33.150Z,1.10
2023-11-12T08:14:59.656Z,1.10
2023-11-12T08:17:26.132Z,1.00
2023-11-12T08:19:53.539Z,1.30
2023-11-12T08:22:20.490Z,1.20
2023-11-12T08:24:47.052Z,1.10
2023-11-12T08:27:14.278Z,0.82
2023-11-12T08:29:40.704Z,0.88
2023-11-12T08:32:07.543Z,1.17
2023-11-12T08:34:34.743Z,1.00
2023-11-12T08:37:01.286Z,1.50
2023-11-12T08:39:29.105Z,1.20
2023-11-12T08:41:55.622Z,1.50
2023-11-12T08:44:22.242Z,1.45
2023-11-12T08:46:52.391Z,1.58
2023-11-12T08:49:19.823Z,1.17
2023-11-12T08:51:46.345Z,1.00
2023-11-12T08:54:13.830Z,1.17
2023-11-12T08:56:40.610Z,1.70
2023-11-12T08:59:08.859Z,1.20
2023-11-12T09:01:39.172Z,1.48
2023-11-12T09:04:05.858Z,1.13
2023-11-12T09:06:32.480Z,2.40
2023-11-12T09:08:59.084Z,1.95
2023-11-12T09:11:25.571Z,2.10
2023-11-12T09:13:52.540Z,1.52
2023-11-12T09:16:19.116Z,1.50
2023-11-12T09:18:45.748Z,1.77
2023-11-12T09:21:12.327Z,1.38
2023-11-12T09:23:39.709Z,1.33
2023-11-12T09:26:06.245Z,1.92
2023-11-12T09:28:32.690Z,1.70
2023-11-12T09:31:00.628Z,1.65
2023-11-12T09:33:28.406Z,1.55
2023-11-12T09:35:55.233Z,1.52
2023-11-12T09:38:22.131Z,1.73
2023-11-12T09:40:48.806Z,1.40
2023-11-12T09:43:15.460Z,1.52
2023-11-12T09:45:44.944Z,1.52
2023-11-12T09:48:24.375Z,1.63
2023-11-12T09:50:51.206Z,1.65
2023-11-12T09:53:18.257Z,1.30
2023-11-12T09:55:46.172Z,1.92
2023-11-12T09:58:13.380Z,1.52
2023-11-12T10:00:39.857Z,1.50
2023-11-12T10:03:08.750Z,1.33
2023-11-12T10:05:36.340Z,1.38
2023-11-12T10:08:05.774Z,1.83
2023-11-12T10:10:32.801Z,1.52
2023-11-12T10:12:59.765Z,1.75
2023-11-12T10:15:31.859Z,1.40
2023-11-12T10:18:01.119Z,1.77
2023-11-12T10:22:57.300Z,1.60
2023-11-12T10:25:36.981Z,2.03
2023-11-12T10:28:05.444Z,1.95
2023-11-12T10:30:32.389Z,2.22
2023-11-12T10:33:28.617Z,2.30
2023-11-12T10:35:58.553Z,1.85
2023-11-12T10:38:25.200Z,1.80
2023-11-12T10:41:03.336Z,2.08
2023-11-12T10:43:31.844Z,1.55
2023-11-12T10:46:04.766Z,2.10
2023-11-12T10:48:36.673Z,1.60
2023-11-12T10:51:06.687Z,1.90
2023-11-12T10:53:34.584Z,1.40
2023-11-12T10:56:02.630Z,1.80
2023-11-12T10:58:33.066Z,2.08
2023-11-12T11:01:02.710Z,2.20
2023-11-12T11:03:31.336Z,2.20
2023-11-12T11:06:00.928Z,1.75
2023-11-12T11:08:31.788Z,1.90
2023-11-12T11:11:05.339Z,1.77
2023-11-12T11:13:34.307Z,1.60
2023-11-12T11:16:01.996Z,1.92
2023-11-12T11:18:37.217Z,1.90
2023-11-12T11:21:03.622Z,1.52
2023-11-12T11:23:48.467Z,1.48
2023-11-12T11:26:40.592Z,1.90
2023-11-12T11:29:08.786Z,1.60
2023-11-12T11:31:36.597Z,1.67
2023-11-12T11:34:04.312Z,1.77
2023-11-12T11:36:34.881Z,1.55
2023-11-12T11:41:43.299Z,1.60
2023-11-12T11:44:46.894Z,2.00
2023-11-12T11:47:18.997Z,1.80
2023-11-12T11:50:11.269Z,1.80
2023-11-12T11:52:40.216Z,1.90
2023-11-12T11:55:28.271Z,1.67
2023-11-12T11:58:01.157Z,1.98
2023-11-12T12:00:27.654Z,1.92
2023-11-12T12:02:55.019Z,1.90
2023-11-12T12:05:34.094Z,1.60
2023-11-12T12:08:05.125Z,1.70
2023-11-12T12:10:33.442Z,1.92
2023-11-12T12:13:00.010Z,1.58
2023-11-12T12:15:27.429Z,1.67
2023-11-12T12:17:53.997Z,1.65
2023-11-12T12:20:20.493Z,1.40
2023-11-12T12:22:47.936Z,1.70
2023-11-12T12:25:15.092Z,2.00
2023-11-12T12:27:52.905Z,1.52
2023-11-12T12:30:19.432Z,1.48
2023-11-12T12:32:45.846Z,1.60
2023-11-12T12:35:21.948Z,1.42
2023-11-12T12:37:48.314Z,1.38
2023-11-12T12:40:26.675Z,1.65
2023-11-12T12:42:56.029Z,2.00
2023-11-12T12:45:22.613Z,1.98
2023-11-12T12:47:49.336Z,1.65
2023-11-12T12:50:34.460Z,1.58
2023-11-12T12:53:14.940Z,1.83
2023-11-12T12:55:45.510Z,1.77
2023-11-12T13:00:46.718Z,1.80
2023-11-12T13:03:28.274Z,1.90
2023-11-12T13:05:57.677Z,1.60
2023-11-12T13:08:24.639Z,2.17
2023-11-12T13:10:51.501Z,1.80
2023-11-12T13:13:22.796Z,1.77
2023-11-12T13:15:49.439Z,2.17
2023-11-12T13:18:16.036Z,1.92
2023-11-12T13:20:42.528Z,1.80
2023-11-12T13:23:08.929Z,1.50
2023-11-12T13:25:35.463Z,1.55
2023-11-12T13:28:03.788Z,1.60
2023-11-12T13:30:30.310Z,1.73
2023-11-12T13:32:57.260Z,1.58
2023-11-12T13:35:25.219Z,1.70
2023-11-12T13:37:51.655Z,1.80
2023-11-12T13:40:18.332Z,1.73
2023-11-12T13:42:45.806Z,1.83
2023-11-12T13:45:14.765Z,1.35
2023-11-12T13:47:41.352Z,1.77
2023-11-12T13:50:12.443Z,1.83
2023-11-12T13:52:39.763Z,1.77
2023-11-12T13:55:11.592Z,1.60
2023-11-12T13:57:38.863Z,1.75
2023-11-12T14:00:12.702Z,1.70
2023-11-12T14:02:41.470Z,1.58
2023-11-12T14:05:09.153Z,1.63
2023-11-12T14:07:39.880Z,1.58
2023-11-12T14:10:09.555Z,1.60
2023-11-12T14:12:38.363Z,1.90
2023-11-12T14:15:06.522Z,1.70
2023-11-12T14:17:34.577Z,1.67
2023-11-12T14:20:01.073Z,1.70
2023-11-12T14:22:28.485Z,1.90
2023-11-12T14:24:58.117Z,1.70
2023-11-12T14:27:27.687Z,1.60
2023-11-12T14:29:55.056Z,1.70
2023-11-12T14:32:22.003Z,1.50
2023-11-12T14:34:48.487Z,1.92
2023-11-12T14:37:15.095Z,1.95
2023-11-12T14:39:41.553Z,1.90
2023-11-12T14:42:07.978Z,1.90
2023-11-12T14:44:34.432Z,2.03
2023-11-12T14:47:01.440Z,2.10
2023-11-12T14:49:28.934Z,1.98
2023-11-12T14:51:55.420Z,1.70
2023-11-12T14:54:21.845Z,1.85
2023-11-12T14:56:53.594Z,1.70
2023-11-12T14:59:20.935Z,1.55
2023-11-12T15:01:48.069Z,1.95
2023-11-12T15:04:16.438Z,1.92
2023-11-12T15:06:43.080Z,1.98
2023-11-12T15:09:11.714Z,1.85
2023-11-12T15:11:41.315Z,1.85
2023-11-12T15:14:07.988Z,1.60
2023-11-12T15:16:34.626Z,1.60
2023-11-12T15:19:01.167Z,1.50
2023-11-12T15:21:28.727Z,1.50
2023-11-12T15:23:55.358Z,1.80
2023-11-12T15:26:22.045Z,1.38
2023-11-12T15:28:51.228Z,1.48
2023-11-12T15:31:18.495Z,1.40
2023-11-12T15:33:46.078Z,1.63
2023-11-12T15:36:12.602Z,1.48
2023-11-12T15:38:39.492Z,1.70
2023-11-12T15:41:08.918Z,1.58
2023-11-12T15:43:35.379Z,1.58
2023-11-12T15:46:04.685Z,1.77
2023-11-12T15:48:32.136Z,1.95
2023-11-12T15:50:58.753Z,1.80
2023-11-12T15:53:30.430Z,1.58
2023-11-12T15:55:59.547Z,1.50
2023-11-12T15:58:26.785Z,1.55
2023-11-12T16:00:53.866Z,1.60
2023-11-12T16:03:20.583Z,1.38
2023-11-12T16:05:48.397Z,1.45
2023-11-12T16:08:15.361Z,1.40
2023-11-12T16:10:41.957Z,1.50
2023-11-12T16:13:09.286Z,1.30
2023-11-12T16:15:37.202Z,1.40
2023-11-12T16:18:04.194Z,1.60
2023-11-12T16:20:32.915Z,1.63
2023-11-12T16:23:00.060Z,1.83
2023-11-12T16:25:27.797Z,1.70
2023-11-12T16:27:55.572Z,1.90
2023-11-12T16:30:25.022Z,1.75
2023-11-12T16:32:51.770Z,1.63
2023-11-12T16:35:20.923Z,2.20
2023-11-12T16:37:49.504Z,1.63
2023-11-12T16:40:18.198Z,2.10
2023-11-12T16:42:47.313Z,1.73
2023-11-12T16:45:14.063Z,1.70
2023-11-12T16:47:41.884Z,1.95
2023-11-12T16:50:09.966Z,2.05
2023-11-12T16:52:37.968Z,2.30
2023-11-12T16:55:06.201Z,2.75
2023-11-12T16:57:34.485Z,2.40
2023-11-12T17:00:01.041Z,3.10
2023-11-12T17:02:29.819Z,6.20
2023-11-12T17:04:56.853Z,8.77
2023-11-12T17:07:23.454Z,17.70
2023-11-12T17:09:50.009Z,20.08
2023-11-12T17:12:16.961Z,22.13
2023-11-12T17:14:43.716Z,22.70
2023-11-12T17:17:10.356Z,31.02
2023-11-12T17:19:36.847Z,46.55
2023-11-12T17:22:03.371Z,48.10
2023-11-12T17:24:30.030Z,53.50
2023-11-12T17:26:56.621Z,54.08
2023-11-12T17:29:23.175Z,51.20
2023-11-12T17:31:50.629Z,47.05
2023-11-12T17:34:17.952Z,49.58
2023-11-12T17:36:44.539Z,47.30
2023-11-12T17:39:11.074Z,43.65
2023-11-12T17:41:38.010Z,42.72
2023-11-12T17:44:05.387Z,43.58
2023-11-12T17:46:32.591Z,41.80
2023-11-12T17:49:01.994Z,42.88
2023-11-12T17:51:28.816Z,44.78
2023-11-12T17:55:49.648Z,40.33
2023-11-12T17:58:16.185Z,42.15
2023-11-12T18:00:42.708Z,35.00
2023-11-12T18:03:09.325Z,37.10
2023-11-12T18:05:35.976Z,34.78
2023-11-12T18:08:02.539Z,35.80
2023-11-12T18:10:28.959Z,36.30
2023-11-12T18:12:59.344Z,30.10
2023-11-12T18:15:26.648Z,33.78
2023-11-12T18:17:53.169Z,31.23
2023-11-12T18:20:20.400Z,33.78
2023-11-12T18:22:46.822Z,29.55
2023-11-12T18:25:13.477Z,34.70
2023-11-12T18:27:42.172Z,28.85
2023-11-12T18:30:09.199Z,28.55
2023-11-12T18:32:38.956Z,31.02
2023-11-12T18:35:07.186Z,29.92
2023-11-12T18:37:34.151Z,27.58
2023-11-12T18:40:01.163Z,26.00
2023-11-12T18:42:28.133Z,25.98
2023-11-12T18:44:54.524Z,24.67
2023-11-12T18:47:20.957Z,26.08
2023-11-12T18:49:49.976Z,23.02
2023-11-12T18:52:16.432Z,22.23
2023-11-12T18:54:43.971Z,22.85
2023-11-12T18:57:10.627Z,23.10
2023-11-12T18:59:37.091Z,24.10
2023-11-12T19:02:03.557Z,22.75
2023-11-12T19:04:31.094Z,22.58
2023-11-12T19:06:57.612Z,20.15
2023-11-12T19:09:24.384Z,23.08
2023-11-12T19:11:50.891Z,20.38
2023-11-12T19:14:18.387Z,20.00
2023-11-12T19:16:46.171Z,21.55
2023-11-12T19:19:13.162Z,19.83
2023-11-12T19:21:41.071Z,20.45
2023-11-12T19:24:11.384Z,19.65
2023-11-12T19:26:38.361Z,20.15
2023-11-12T19:29:04.800Z,18.45
2023-11-12T19:31:33.847Z,17.23
2023-11-12T19:34:00.992Z,16.58
2023-11-12T19:36:27.463Z,16.33
2023-11-12T19:38:54.170Z,17.63
2023-11-12T19:41:20.868Z,16.00
2023-11-12T19:43:48.530Z,16.08
2023-11-12T19:46:15.050Z,17.13
2023-11-12T19:48:41.845Z,14.95
2023-11-12T19:51:08.288Z,14.57
2023-11-12T19:53:34.771Z,15.88
2023-11-12T19:56:01.264Z,14.35
2023-11-12T19:58:27.763Z,14.30
2023-11-12T20:00:55.774Z,15.65
2023-11-12T20:03:22.826Z,14.35
2023-11-12T20:05:49.445Z,15.77
2023-11-12T20:08:15.881Z,15.45
2023-11-12T20:10:43.554Z,13.10
2023-11-12T20:13:10.111Z,13.95
2023-11-12T20:15:37.640Z,11.80
2023-11-12T20:18:09.488Z,11.77
2023-11-12T20:20:39.491Z,11.35
2023-11-12T20:23:08.721Z,13.10
2023-11-12T20:25:36.583Z,12.25
2023-11-12T20:28:12.333Z,10.68
2023-11-12T20:30:40.955Z,11.52
2023-11-12T20:33:07.534Z,11.80
2023-11-12T20:35:34.042Z,10.63
2023-11-12T20:38:00.821Z,11.73
2023-11-12T20:40:31.177Z,10.40
2023-11-12T20:42:57.656Z,10.73
2023-11-12T20:45:26.250Z,9.40
2023-11-12T20:47:53.000Z,10.05
2023-11-12T20:50:20.144Z,9.38
2023-11-12T20:52:47.209Z,9.80
2023-11-12T20:55:17.222Z,10.80
2023-11-12T20:57:47.322Z,10.73
2023-11-12T21:00:17.652Z,9.05
2023-11-12T21:02:44.200Z,8.70
2023-11-12T21:05:10.752Z,8.13
2023-11-12T21:07:37.237Z,10.18
2023-11-12T21:10:03.807Z,9.27
2023-11-12T21:12:30.276Z,9.80
2023-11-12T21:14:56.654Z,8.43
2023-11-12T21:17:23.094Z,9.05
2023-11-12T21:19:50.548Z,8.60
2023-11-12T21:22:17.086Z,9.40
2023-11-12T21:24:44.187Z,9.05
2023-11-12T21:27:13.360Z,8.02
2023-11-12T21:29:40.710Z,7.55
2023-11-12T21:32:09.177Z,8.70
2023-11-12T21:34:37.100Z,8.15
2023-11-12T21:37:03.911Z,8.50
2023-11-12T21:39:30.367Z,6.70
2023-11-12T21:41:56.768Z,8.02
2023-11-12T21:44:24.610Z,8.35
2023-11-12T21:46:52.826Z,7.57
2023-11-12T21:49:19.293Z,7.70
2023-11-12T21:51:46.111Z,6.65
2023-11-12T21:54:12.620Z,6.80
2023-11-12T21:56:39.056Z,6.63
2023-11-12T21:59:06.983Z,6.78
2023-11-12T22:01:33.449Z,7.03
2023-11-12T22:03:59.860Z,7.18
2023-11-12T22:06:26.385Z,7.45
2023-11-12T22:08:53.110Z,6.10
2023-11-12T22:11:19.528Z,7.22
2023-11-12T22:13:46.177Z,6.30
2023-11-12T22:16:13.401Z,7.18
2023-11-12T22:18:40.161Z,7.22
2023-11-12T22:21:07.861Z,7.38
2023-11-12T22:23:34.296Z,7.43
2023-11-12T22:26:00.861Z,6.70
2023-11-12T22:28:27.317Z,7.10
2023-11-12T22:30:53.742Z,7.25
2023-11-12T22:33:20.153Z,5.85
2023-11-12T22:35:46.525Z,6.47
2023-11-12T22:38:12.936Z,6.20
2023-11-12T22:40:39.660Z,6.03
2023-11-12T22:43:07.276Z,7.57
2023-11-12T22:45:33.888Z,6.13
2023-11-12T22:48:00.402Z,5.70
2023-11-12T22:50:28.557Z,6.90
2023-11-12T22:52:55.105Z,6.90
2023-11-12T22:55:21.960Z,6.80
2023-11-12T22:57:48.521Z,6.80
2023-11-12T23:02:57.336Z,7.10
2023-11-12T23:05:23.864Z,6.05
2023-11-12T23:07:50.235Z,6.60
2023-11-12T23:10:16.743Z,7.68
2023-11-12T23:12:43.256Z,6.53
2023-11-12T23:15:09.806Z,6.93
2023-11-12T23:17:36.833Z,7.15
2023-11-12T23:20:04.470Z,5.35
2023-11-12T23:22:30.929Z,6.05
2023-11-12T23:24:57.443Z,6.22
2023-11-12T23:27:24.015Z,6.78
2023-11-12T23:29:50.530Z,5.50
2023-11-12T23:32:17.494Z,6.13
2023-11-12T23:34:44.959Z,5.75
2023-11-12T23:37:11.590Z,6.40
2023-11-12T23:39:38.427Z,5.65
2023-11-12T23:42:05.333Z,6.03
2023-11-12T23:44:31.757Z,7.53
2023-11-12T23:46:58.188Z,5.93
2023-11-12T23:49:24.627Z,6.15
2023-11-12T23:51:51.099Z,6.70
2023-11-12T23:54:17.552Z,6.50
2023-11-12T23:56:44.098Z,5.95
2023-11-12T23:59:10.755Z,5.65
